createdAt,value
2017-12-15T00:01:22.003Z,1.83
2017-12-15T00:04:27.445Z,2.10
2017-12-15T00:07:33.081Z,1.07
2017-12-15T00:10:39.146Z,1.13
2017-12-15T00:13:45.158Z,1.07
2017-12-15T00:16:50.430Z,1.57
2017-12-15T00:19:56.918Z,1.10
2017-12-15T00:23:01.971Z,2.93
2017-12-15T00:26:07.170Z,1.63
2017-12-15T00:29:11.982Z,1.60
2017-12-15T00:32:17.702Z,1.70
2017-12-15T00:35:24.013Z,1.53
2017-12-15T00:38:29.778Z,1.13
2017-12-15T00:41:35.538Z,1.50
2017-12-15T00:44:41.242Z,2.87
2017-12-15T00:47:46.634Z,3.80
2017-12-15T00:50:53.048Z,2.30
2017-12-15T00:53:58.482Z,2.10
2017-12-15T00:57:03.477Z,1.33
2017-12-15T01:00:09.378Z,1.70
2017-12-15T01:03:15.466Z,0.80
2017-12-15T01:06:22.381Z,0.80
2017-12-15T01:09:29.091Z,0.60
2017-12-15T01:12:35.411Z,0.30
2017-12-15T01:15:41.942Z,0.40
2017-12-15T01:18:47.381Z,0.40
2017-12-15T01:21:53.158Z,0.30
2017-12-15T01:24:59.130Z,0.40
2017-12-15T01:28:05.201Z,1.53
2017-12-15T01:31:10.919Z,0.33
2017-12-15T01:34:16.978Z,0.30
2017-12-15T01:37:22.758Z,0.50
2017-12-15T01:40:28.803Z,1.73
2017-12-15T01:43:34.918Z,0.30
2017-12-15T01:46:40.483Z,1.53
2017-12-15T01:49:46.235Z,0.30
2017-12-15T01:52:52.465Z,1.07
2017-12-15T01:55:58.251Z,0.40
2017-12-15T01:59:03.626Z,0.40
2017-12-15T02:02:08.667Z,0.40
2017-12-15T02:05:13.465Z,0.30
2017-12-15T02:08:18.419Z,0.40
2017-12-15T02:11:25.726Z,0.30
2017-12-15T02:14:31.651Z,0.37
2017-12-15T02:17:36.496Z,0.30
2017-12-15T02:20:42.298Z,0.30
2017-12-15T02:23:47.665Z,1.67
2017-12-15T02:26:53.376Z,0.40
2017-12-15T02:29:59.143Z,0.30
2017-12-15T02:33:03.988Z,0.40
2017-12-15T02:36:09.699Z,0.40
2017-12-15T02:39:15.470Z,0.40
2017-12-15T02:42:20.834Z,0.80
2017-12-15T02:45:26.363Z,0.40
2017-12-15T02:48:31.399Z,0.70
2017-12-15T02:51:37.378Z,0.70
2017-12-15T02:54:42.683Z,0.40
2017-12-15T02:57:48.690Z,0.70
2017-12-15T03:00:54.070Z,1.30
2017-12-15T03:04:00.626Z,0.50
2017-12-15T03:07:06.614Z,0.47
2017-12-15T03:10:12.201Z,0.80
2017-12-15T03:13:17.666Z,0.50
2017-12-15T03:16:23.763Z,0.70
2017-12-15T03:19:28.618Z,0.80
2017-12-15T03:22:33.778Z,0.50
2017-12-15T03:25:38.722Z,0.60
2017-12-15T03:28:44.746Z,1.77
2017-12-15T03:31:50.704Z,0.60
2017-12-15T03:34:55.545Z,1.17
2017-12-15T03:38:00.698Z,0.70
2017-12-15T03:41:06.674Z,1.37
2017-12-15T03:44:12.204Z,0.70
2017-12-15T03:47:18.970Z,2.93
2017-12-15T03:50:23.781Z,2.53
2017-12-15T03:53:29.302Z,2.33
2017-12-15T03:56:35.185Z,3.90
2017-12-15T03:59:41.274Z,2.40
2017-12-15T04:02:46.138Z,0.97
2017-12-15T04:05:52.130Z,0.70
2017-12-15T04:08:58.414Z,2.73
2017-12-15T04:12:04.107Z,0.83
2017-12-15T04:15:09.054Z,0.60
2017-12-15T04:18:14.166Z,1.17
2017-12-15T04:21:19.746Z,1.93
2017-12-15T04:24:24.810Z,1.30
2017-12-15T04:27:30.806Z,1.97
2017-12-15T04:30:36.637Z,1.23
2017-12-15T04:33:42.666Z,1.80
2017-12-15T04:36:47.649Z,1.00
2017-12-15T04:39:53.210Z,3.53
2017-12-15T04:42:59.570Z,1.90
2017-12-15T04:46:04.858Z,2.17
2017-12-15T04:49:10.519Z,2.00
2017-12-15T04:52:17.134Z,2.77
2017-12-15T04:55:21.958Z,1.90
2017-12-15T04:58:28.441Z,1.63
2017-12-15T05:01:33.714Z,4.73
2017-12-15T05:04:38.815Z,4.80
2017-12-15T05:07:44.074Z,4.70
2017-12-15T05:10:50.007Z,0.90
2017-12-15T05:13:55.367Z,6.13
2017-12-15T05:17:00.078Z,1.60
2017-12-15T05:20:06.207Z,1.70
2017-12-15T05:23:11.459Z,1.43
2017-12-15T05:26:17.138Z,4.40
2017-12-15T05:29:22.730Z,2.53
2017-12-15T05:32:28.514Z,1.00
2017-12-15T05:35:34.415Z,2.80
2017-12-15T05:38:40.547Z,0.70
2017-12-15T05:41:46.286Z,6.70
2017-12-15T05:44:52.479Z,0.80
2017-12-15T05:47:58.711Z,3.47
2017-12-15T05:51:05.086Z,3.70
2017-12-15T05:54:10.752Z,1.33
2017-12-15T05:57:16.434Z,5.20
2017-12-15T06:00:21.514Z,1.90
2017-12-15T06:03:27.545Z,2.77
2017-12-15T06:06:33.175Z,3.60
2017-12-15T06:09:39.068Z,2.37
2017-12-15T06:12:44.745Z,2.30
2017-12-15T06:15:50.942Z,1.53
2017-12-15T06:18:57.567Z,1.70
2017-12-15T06:22:03.701Z,2.40
2017-12-15T06:25:09.027Z,3.17
2017-12-15T06:28:14.446Z,0.83
2017-12-15T06:31:19.462Z,1.47
2017-12-15T06:34:26.043Z,1.30
2017-12-15T06:37:32.014Z,1.50
2017-12-15T06:40:37.562Z,2.07
2017-12-15T06:43:43.594Z,3.13
2017-12-15T06:46:48.678Z,2.33
2017-12-15T06:49:54.802Z,1.57
2017-12-15T06:53:01.407Z,2.97
2017-12-15T06:56:07.830Z,2.27
2017-12-15T06:59:13.293Z,0.87
2017-12-15T07:02:18.258Z,0.70
2017-12-15T07:05:22.950Z,5.73
2017-12-15T07:08:28.414Z,33.63
2017-12-15T07:11:33.626Z,24.83
2017-12-15T07:14:38.859Z,7.67
2017-12-15T07:17:43.823Z,1.37
2017-12-15T07:20:50.314Z,3.40
2017-12-15T07:23:55.878Z,2.27
2017-12-15T07:27:01.266Z,1.70
2017-12-15T07:30:07.122Z,2.00
2017-12-15T07:33:13.273Z,2.80
2017-12-15T07:36:18.678Z,2.13
2017-12-15T07:39:24.471Z,1.53
2017-12-15T07:42:29.622Z,2.07
2017-12-15T07:45:35.146Z,2.00
2017-12-15T07:48:40.482Z,1.93
2017-12-15T07:51:46.126Z,1.47
2017-12-15T07:54:52.507Z,0.80
2017-12-15T07:57:58.530Z,1.47
2017-12-15T08:01:03.574Z,2.03
2017-12-15T08:04:08.608Z,2.00
2017-12-15T08:07:14.498Z,1.80
2017-12-15T08:10:20.566Z,2.80
2017-12-15T08:13:26.956Z,5.10
2017-12-15T08:16:33.218Z,1.50
2017-12-15T08:19:39.040Z,1.47
2017-12-15T08:22:45.318Z,1.80
2017-12-15T08:25:51.003Z,3.17
2017-12-15T08:28:56.262Z,4.20
2017-12-15T08:32:01.330Z,1.50
2017-12-15T08:35:06.946Z,4.67
2017-12-15T08:38:12.286Z,1.33
2017-12-15T08:41:18.294Z,3.30
2017-12-15T08:44:24.224Z,3.10
2017-12-15T08:47:29.579Z,2.73
2017-12-15T08:50:35.130Z,2.33
2017-12-15T08:53:40.201Z,1.80
2017-12-15T08:56:44.982Z,1.60
2017-12-15T08:59:50.650Z,3.37
2017-12-15T09:02:55.414Z,2.20
2017-12-15T09:06:01.242Z,2.20
2017-12-15T09:09:06.774Z,1.20
2017-12-15T09:12:11.867Z,4.70
2017-12-15T09:15:16.936Z,3.40
2017-12-15T09:18:22.215Z,1.93
2017-12-15T09:21:27.787Z,3.30
2017-12-15T09:24:33.599Z,3.67
2017-12-15T09:27:38.826Z,7.10
2017-12-15T09:30:45.302Z,0.93
2017-12-15T09:33:50.705Z,1.60
2017-12-15T09:36:56.474Z,2.50
2017-12-15T09:40:02.239Z,4.83
2017-12-15T09:43:07.625Z,2.97
2017-12-15T09:46:13.014Z,3.43
2017-12-15T09:49:18.550Z,2.27
2017-12-15T09:52:24.734Z,7.80
2017-12-15T09:55:30.759Z,1.80
2017-12-15T09:58:36.274Z,4.83
2017-12-15T10:01:42.384Z,2.13
2017-12-15T10:04:47.626Z,1.90
2017-12-15T10:07:54.030Z,7.63
2017-12-15T10:10:59.349Z,2.13
2017-12-15T10:14:04.243Z,1.07
2017-12-15T10:17:09.163Z,1.00
2017-12-15T10:20:14.519Z,2.20
2017-12-15T10:23:20.417Z,3.97
2017-12-15T10:26:25.305Z,3.93
2017-12-15T10:29:30.230Z,2.93
2017-12-15T10:32:36.781Z,3.80
2017-12-15T10:35:42.262Z,3.23
2017-12-15T10:38:47.786Z,4.30
2017-12-15T10:41:53.803Z,2.47
2017-12-15T10:44:58.878Z,2.30
2017-12-15T10:48:04.902Z,1.10
2017-12-15T10:51:09.658Z,1.53
2017-12-15T10:54:16.102Z,2.73
2017-12-15T10:57:21.718Z,3.23
2017-12-15T11:00:27.361Z,3.43
2017-12-15T11:03:33.790Z,2.93
2017-12-15T11:06:38.554Z,4.37
2017-12-15T11:09:44.437Z,2.07
2017-12-15T11:12:50.149Z,1.63
2017-12-15T11:15:56.122Z,2.10
2017-12-15T11:19:02.674Z,2.40
2017-12-15T11:22:08.550Z,3.27
2017-12-15T11:25:14.101Z,6.30
2017-12-15T11:28:19.586Z,1.90
2017-12-15T11:31:24.994Z,0.80
2017-12-15T11:34:30.406Z,1.97
2017-12-15T11:37:36.222Z,2.13
2017-12-15T11:40:41.078Z,4.70
2017-12-15T11:43:46.685Z,1.17
2017-12-15T11:46:53.209Z,1.43
2017-12-15T11:49:59.353Z,1.27
2017-12-15T11:53:05.541Z,1.70
2017-12-15T11:56:10.821Z,1.90
2017-12-15T11:59:16.518Z,2.00
2017-12-15T12:02:21.733Z,0.60
2017-12-15T12:05:27.450Z,1.43
2017-12-15T12:08:32.833Z,1.40
2017-12-15T12:11:39.294Z,4.00
2017-12-15T12:14:45.029Z,0.70
2017-12-15T12:17:50.198Z,1.07
2017-12-15T12:20:55.808Z,0.83
2017-12-15T12:24:01.430Z,0.93
2017-12-15T12:27:06.202Z,0.67
2017-12-15T12:30:12.548Z,1.33
2017-12-15T12:33:18.323Z,0.50
2017-12-15T12:36:23.713Z,0.50
2017-12-15T12:39:28.550Z,3.50
2017-12-15T12:42:34.417Z,3.33
2017-12-15T12:45:40.772Z,1.27
2017-12-15T12:48:46.039Z,0.70
2017-12-15T12:51:51.423Z,0.90
2017-12-15T12:54:58.338Z,1.30
2017-12-15T12:58:04.769Z,1.00
2017-12-15T13:01:11.141Z,2.47
2017-12-15T13:04:16.371Z,3.00
2017-12-15T13:07:21.650Z,4.80
2017-12-15T13:10:26.350Z,1.47
2017-12-15T13:13:31.178Z,4.40
2017-12-15T13:16:36.042Z,3.83
2017-12-15T13:19:42.346Z,4.20
2017-12-15T13:22:48.028Z,3.20
2017-12-15T13:25:53.954Z,2.87
2017-12-15T13:28:59.493Z,1.70
2017-12-15T13:32:05.525Z,2.07
2017-12-15T13:35:11.301Z,5.50
2017-12-15T13:38:17.074Z,3.17
2017-12-15T13:41:23.386Z,3.67
2017-12-15T13:44:28.966Z,1.33
2017-12-15T13:47:34.661Z,5.80
2017-12-15T13:50:40.181Z,6.37
2017-12-15T13:53:45.354Z,3.50
2017-12-15T13:56:50.394Z,4.87
2017-12-15T13:59:55.425Z,6.60
2017-12-15T14:03:02.730Z,3.60
2017-12-15T14:06:08.782Z,4.80
2017-12-15T14:09:14.168Z,4.60
2017-12-15T14:12:19.567Z,3.33
2017-12-15T14:15:33.292Z,3.03
2017-12-15T14:18:38.422Z,6.23
2017-12-15T14:21:43.266Z,2.33
2017-12-15T14:24:49.446Z,6.10
2017-12-15T14:27:55.796Z,5.83
2017-12-15T14:31:01.546Z,4.40
2017-12-15T14:34:07.366Z,8.13
2017-12-15T14:37:12.782Z,6.47
2017-12-15T14:40:18.422Z,7.83
2017-12-15T14:43:23.694Z,2.90
2017-12-15T14:46:29.222Z,4.53
2017-12-15T14:49:34.230Z,2.43
2017-12-15T14:52:39.478Z,6.27
2017-12-15T14:55:45.042Z,4.10
2017-12-15T14:58:51.062Z,3.43
2017-12-15T15:01:56.492Z,1.93
2017-12-15T15:05:02.057Z,5.90
2017-12-15T15:08:07.554Z,7.73
2017-12-15T15:11:13.671Z,4.80
2017-12-15T15:14:19.895Z,9.70
2017-12-15T15:17:25.202Z,5.33
2017-12-15T15:20:31.282Z,11.07
2017-12-15T15:23:36.754Z,7.07
2017-12-15T15:26:43.082Z,5.93
2017-12-15T15:29:48.862Z,3.93
2017-12-15T15:32:54.006Z,4.30
2017-12-15T15:35:59.434Z,4.80
2017-12-15T15:39:04.258Z,2.40
2017-12-15T15:42:09.334Z,4.90
2017-12-15T15:45:15.654Z,9.13
2017-12-15T15:48:21.494Z,5.70
2017-12-15T15:51:27.262Z,3.60
2017-12-15T15:54:32.203Z,3.47
2017-12-15T15:57:37.021Z,4.13
2017-12-15T16:00:41.710Z,4.90
2017-12-15T16:03:47.628Z,4.93
2017-12-15T16:06:53.161Z,5.33
2017-12-15T16:09:58.975Z,7.63
2017-12-15T16:13:05.654Z,2.70
2017-12-15T16:16:10.756Z,4.57
2017-12-15T16:19:16.122Z,3.77
2017-12-15T16:22:22.597Z,7.37
2017-12-15T16:25:27.569Z,9.47
2017-12-15T16:28:32.351Z,4.37
2017-12-15T16:31:37.317Z,4.93
2017-12-15T16:34:43.226Z,7.63
2017-12-15T16:37:49.102Z,4.10
2017-12-15T16:40:55.609Z,6.07
2017-12-15T16:44:00.854Z,9.30
2017-12-15T16:47:05.865Z,4.40
2017-12-15T16:50:11.299Z,7.57
2017-12-15T16:53:17.046Z,6.23
2017-12-15T16:56:22.074Z,6.90
2017-12-15T16:59:27.807Z,7.80
2017-12-15T17:02:33.798Z,6.60
2017-12-15T17:05:39.681Z,4.77
2017-12-15T17:08:45.630Z,5.33
2017-12-15T17:11:51.563Z,8.30
2017-12-15T17:14:57.442Z,10.47
2017-12-15T17:18:03.010Z,12.60
2017-12-15T17:21:08.498Z,6.73
2017-12-15T17:24:14.578Z,30.07
2017-12-15T17:27:19.483Z,73.40
2017-12-15T17:30:26.030Z,50.83
2017-12-15T17:33:31.870Z,17.20
2017-12-15T17:36:38.142Z,10.30
2017-12-15T17:39:44.202Z,11.37
2017-12-15T17:42:50.294Z,8.80
2017-12-15T17:45:55.292Z,7.47
2017-12-15T17:49:01.086Z,10.13
2017-12-15T17:52:06.367Z,7.50
2017-12-15T17:55:11.131Z,4.10
2017-12-15T17:58:16.127Z,5.00
2017-12-15T18:01:22.476Z,8.03
2017-12-15T18:04:27.950Z,8.20
2017-12-15T18:07:33.802Z,17.30
2017-12-15T18:10:39.077Z,8.70
2017-12-15T18:13:45.435Z,6.90
2017-12-15T18:16:51.548Z,7.40
2017-12-15T18:19:57.190Z,9.90
2017-12-15T18:23:02.578Z,5.77
2017-12-15T18:26:08.242Z,37.60
2017-12-15T18:29:14.023Z,82.53
2017-12-15T18:32:19.789Z,60.90
2017-12-15T18:35:26.002Z,24.27
2017-12-15T18:38:31.346Z,23.63
2017-12-15T18:41:37.130Z,11.33
2017-12-15T18:44:43.195Z,9.23
2017-12-15T18:47:48.813Z,10.87
2017-12-15T18:50:53.866Z,10.50
2017-12-15T18:53:58.896Z,10.97
2017-12-15T18:57:04.994Z,11.23
2017-12-15T19:00:10.485Z,7.50
2017-12-15T19:03:16.058Z,11.33
2017-12-15T19:06:21.909Z,5.60
2017-12-15T19:09:27.698Z,7.60
2017-12-15T19:12:32.743Z,5.70
2017-12-15T19:15:39.210Z,7.20
2017-12-15T19:18:45.159Z,13.83
2017-12-15T19:21:50.333Z,8.37
2017-12-15T19:24:55.271Z,6.77
2017-12-15T19:28:00.627Z,6.53
2017-12-15T19:31:05.806Z,7.30
2017-12-15T19:34:11.390Z,8.60
2017-12-15T19:37:16.840Z,7.73
2017-12-15T19:40:22.496Z,8.67
2017-12-15T19:43:27.816Z,19.43
2017-12-15T19:46:33.464Z,18.10
2017-12-15T19:49:38.428Z,18.57
2017-12-15T19:52:43.856Z,21.77
2017-12-15T19:55:49.394Z,15.20
2017-12-15T19:58:54.842Z,16.70
2017-12-15T20:02:00.470Z,19.50
2017-12-15T20:05:05.976Z,19.57
2017-12-15T20:08:12.604Z,14.00
2017-12-15T20:11:18.010Z,9.77
2017-12-15T20:14:24.413Z,7.53
2017-12-15T20:17:30.844Z,8.77
2017-12-15T20:20:36.889Z,8.60
2017-12-15T20:23:43.101Z,6.53
2017-12-15T20:26:49.462Z,11.37
2017-12-15T20:29:55.158Z,5.87
2017-12-15T20:33:00.946Z,11.40
2017-12-15T20:36:07.350Z,13.53
2017-12-15T20:39:12.946Z,8.63
2017-12-15T20:42:18.406Z,8.40
2017-12-15T20:45:23.474Z,7.67
2017-12-15T20:48:29.650Z,8.70
2017-12-15T20:51:35.326Z,10.13
2017-12-15T20:54:40.763Z,10.50
2017-12-15T20:57:46.580Z,10.37
2017-12-15T21:00:52.186Z,13.60
2017-12-15T21:03:57.798Z,12.10
2017-12-15T21:07:03.546Z,14.10
2017-12-15T21:10:09.102Z,12.30
2017-12-15T21:13:15.070Z,10.80
2017-12-15T21:16:21.506Z,11.13
2017-12-15T21:19:26.478Z,11.57
2017-12-15T21:22:32.182Z,11.03
2017-12-15T21:25:38.378Z,9.70
2017-12-15T21:28:44.186Z,17.10
2017-12-15T21:31:49.945Z,11.90
2017-12-15T21:34:56.150Z,12.73
2017-12-15T21:38:02.035Z,10.63
2017-12-15T21:41:07.886Z,7.60
2017-12-15T21:44:13.696Z,7.27
2017-12-15T21:47:19.162Z,8.90
2017-12-15T21:50:24.211Z,8.23
2017-12-15T21:53:29.918Z,6.63
2017-12-15T21:56:36.314Z,7.43
2017-12-15T21:59:42.531Z,8.30
2017-12-15T22:02:47.535Z,10.70
2017-12-15T22:05:52.893Z,10.63
2017-12-15T22:08:58.393Z,9.83
2017-12-15T22:12:04.563Z,11.50
2017-12-15T22:15:09.582Z,15.50
2017-12-15T22:18:14.823Z,18.00
2017-12-15T22:21:20.078Z,11.80
2017-12-15T22:24:26.671Z,15.57
2017-12-15T22:27:32.938Z,12.20
2017-12-15T22:30:38.742Z,9.97
2017-12-15T22:33:45.374Z,11.10
2017-12-15T22:36:51.194Z,12.13
2017-12-15T22:39:57.255Z,8.07
2017-12-15T22:43:03.082Z,11.77
2017-12-15T22:46:08.736Z,10.03
2017-12-15T22:49:14.098Z,11.20
2017-12-15T22:52:19.034Z,7.73
2017-12-15T22:55:24.221Z,6.30
2017-12-15T22:58:29.777Z,11.00
2017-12-15T23:01:36.034Z,8.83
2017-12-15T23:04:42.042Z,8.37
2017-12-15T23:07:46.909Z,10.97
2017-12-15T23:10:52.202Z,9.33
2017-12-15T23:13:58.266Z,6.40
2017-12-15T23:17:04.147Z,9.53
2017-12-15T23:20:09.769Z,11.70
2017-12-15T23:23:15.287Z,15.77
2017-12-15T23:26:20.469Z,12.30
2017-12-15T23:29:25.424Z,13.20
2017-12-15T23:32:30.562Z,13.77
2017-12-15T23:35:37.086Z,10.43
2017-12-15T23:38:42.780Z,14.83
2017-12-15T23:41:48.010Z,9.53
2017-12-15T23:44:54.061Z,8.70
2017-12-15T23:47:59.290Z,10.73
2017-12-15T23:51:05.622Z,10.67
2017-12-15T23:54:10.722Z,8.30
2017-12-15T23:57:20.558Z,10.30
